createdAt,value
2018-04-24T00:00:50.816Z,98544.48
2018-04-24T00:03:18.414Z,98538.50
2018-04-24T00:05:46.176Z,98547.53
2018-04-24T00:08:13.931Z,98546.77
2018-04-24T00:10:41.808Z,98549.83
2018-04-24T00:13:09.531Z,98543.25
2018-04-24T00:15:37.196Z,98536.14
2018-04-24T00:18:04.779Z,98537.50
2018-04-24T00:20:32.483Z,98542.11
2018-04-24T00:23:00.076Z,98545.89
2018-04-24T00:25:27.660Z,98545.41
2018-04-24T00:27:55.409Z,98551.91
2018-04-24T00:30:22.997Z,98552.12
2018-04-24T00:32:50.577Z,98553.17
2018-04-24T00:35:18.392Z,98548.97
2018-04-24T00:37:46.020Z,98548.23
2018-04-24T00:40:13.623Z,98549.41
2018-04-24T00:42:42.105Z,98554.00
2018-04-24T00:45:09.684Z,98552.03
2018-04-24T00:47:37.321Z,98552.77
2018-04-24T00:50:04.997Z,98557.59
2018-04-24T00:52:32.631Z,98561.47
2018-04-24T00:55:00.204Z,98563.88
2018-04-24T00:57:27.929Z,98564.59
2018-04-24T00:59:55.510Z,98565.64
2018-04-24T01:02:23.095Z,98562.42
2018-04-24T01:04:50.786Z,98568.59
2018-04-24T01:07:18.357Z,98562.00
2018-04-24T01:09:46.012Z,98565.66
2018-04-24T01:12:13.771Z,98558.02
2018-04-24T01:14:41.345Z,98557.00
2018-04-24T01:17:08.985Z,98564.73
2018-04-24T01:19:36.608Z,98562.86
2018-04-24T01:22:04.343Z,98556.05
2018-04-24T01:24:31.935Z,98553.33
2018-04-24T01:26:59.626Z,98557.84
2018-04-24T01:29:27.229Z,98551.14
2018-04-24T01:31:54.804Z,98553.63
2018-04-24T01:34:22.538Z,98557.81
2018-04-24T01:36:50.880Z,98554.06
2018-04-24T01:39:18.455Z,98555.52
2018-04-24T01:41:46.180Z,98555.63
2018-04-24T01:44:13.746Z,98552.72
2018-04-24T01:46:41.403Z,98556.88
2018-04-24T01:49:09.019Z,98556.36
2018-04-24T01:51:36.583Z,98558.66
2018-04-24T01:54:04.260Z,98558.95
2018-04-24T01:56:32.042Z,98555.59
2018-04-24T01:58:59.635Z,98562.91
2018-04-24T02:01:27.280Z,98566.23
2018-04-24T02:03:54.915Z,98568.44
2018-04-24T02:06:22.552Z,98572.84
2018-04-24T02:08:50.188Z,98576.23
2018-04-24T02:11:17.916Z,98570.31
2018-04-24T02:13:45.582Z,98574.72
2018-04-24T02:16:13.143Z,98571.06
2018-04-24T02:18:40.771Z,98575.23
2018-04-24T02:21:08.356Z,98569.25
2018-04-24T02:23:35.934Z,98569.02
2018-04-24T02:26:03.672Z,98577.49
2018-04-24T02:28:31.252Z,98573.28
2018-04-24T02:30:58.902Z,98572.02
2018-04-24T02:33:26.638Z,98567.61
2018-04-24T02:35:54.200Z,98567.93
2018-04-24T02:38:21.875Z,98572.09
2018-04-24T02:40:50.411Z,98575.09
2018-04-24T02:43:18.043Z,98570.31
2018-04-24T02:45:45.612Z,98571.86
2018-04-24T02:48:13.251Z,98570.16
2018-04-24T02:50:40.872Z,98578.82
2018-04-24T02:53:08.464Z,98572.64
2018-04-24T02:55:36.179Z,98575.69
2018-04-24T02:58:03.748Z,98573.90
2018-04-24T03:00:31.400Z,98573.34
2018-04-24T03:02:59.026Z,98577.31
2018-04-24T03:05:26.677Z,98583.59
2018-04-24T03:07:54.318Z,98581.21
2018-04-24T03:10:22.101Z,98586.02
2018-04-24T03:12:49.670Z,98576.39
2018-04-24T03:15:17.304Z,98583.40
2018-04-24T03:17:44.980Z,98581.19
2018-04-24T03:20:12.562Z,98585.54
2018-04-24T03:22:40.212Z,98589.27
2018-04-24T03:25:08.004Z,98590.20
2018-04-24T03:27:35.577Z,98583.23
2018-04-24T03:30:03.187Z,98585.61
2018-04-24T03:32:30.904Z,98589.44
2018-04-24T03:34:58.487Z,98588.08
2018-04-24T03:37:26.060Z,98592.13
2018-04-24T03:39:54.064Z,98594.11
2018-04-24T03:42:21.693Z,98587.66
2018-04-24T03:44:49.259Z,98589.88
2018-04-24T03:47:16.900Z,98594.92
2018-04-24T03:49:44.471Z,98593.88
2018-04-24T03:52:12.071Z,98599.03
2018-04-24T03:54:39.752Z,98599.47
2018-04-24T03:57:07.419Z,98605.38
2018-04-24T03:59:34.943Z,98605.16
2018-04-24T04:02:02.686Z,98604.45
2018-04-24T04:04:30.260Z,98612.11
2018-04-24T04:06:57.863Z,98612.05
2018-04-24T04:09:25.726Z,98616.76
2018-04-24T04:11:53.296Z,98621.95
2018-04-24T04:14:20.928Z,98627.94
2018-04-24T04:16:48.680Z,98621.16
2018-04-24T04:19:27.984Z,98628.92
2018-04-24T04:22:07.611Z,98628.41
2018-04-24T04:24:47.689Z,98630.21
2018-04-24T04:27:15.456Z,98631.79
2018-04-24T04:29:43.103Z,98634.30
2018-04-24T04:32:10.707Z,98640.69
2018-04-24T04:34:38.432Z,98637.55
2018-04-24T04:37:06.018Z,98642.80
2018-04-24T04:39:33.649Z,98640.15
2018-04-24T04:42:02.466Z,98642.00
2018-04-24T04:44:30.058Z,98642.38
2018-04-24T04:46:57.706Z,98639.27
2018-04-24T04:49:25.425Z,98643.40
2018-04-24T04:51:53.097Z,98647.20
2018-04-24T04:54:20.692Z,98647.93
2018-04-24T04:56:48.589Z,98647.09
2018-04-24T04:59:16.164Z,98650.91
2018-04-24T05:01:43.819Z,98647.59
2018-04-24T05:04:11.535Z,98650.59
2018-04-24T05:06:39.216Z,98648.14
2018-04-24T05:09:07.527Z,98647.06
2018-04-24T05:11:35.255Z,98641.88
2018-04-24T05:14:02.844Z,98647.67
2018-04-24T05:16:30.416Z,98651.34
2018-04-24T05:18:58.164Z,98653.00
2018-04-24T05:21:25.760Z,98648.34
2018-04-24T05:23:53.403Z,98653.70
2018-04-24T05:26:21.181Z,98657.73
2018-04-24T05:28:48.763Z,98658.69
2018-04-24T05:31:16.384Z,98657.16
2018-04-24T05:33:44.123Z,98660.52
2018-04-24T05:36:11.708Z,98661.32
2018-04-24T05:38:39.292Z,98657.56
2018-04-24T05:41:07.023Z,98658.84
2018-04-24T05:43:34.816Z,98664.64
2018-04-24T05:46:02.463Z,98667.29
2018-04-24T05:48:30.284Z,98665.72
2018-04-24T05:50:57.923Z,98668.91
2018-04-24T05:53:25.532Z,98669.47
2018-04-24T05:55:53.247Z,98677.28
2018-04-24T05:58:20.910Z,98674.37
2018-04-24T06:00:48.524Z,98668.16
2018-04-24T06:03:16.330Z,98678.03
2018-04-24T06:05:43.917Z,98675.70
2018-04-24T06:08:11.576Z,98680.78
2018-04-24T06:10:39.299Z,98688.75
2018-04-24T06:13:06.879Z,98690.86
2018-04-24T06:15:34.532Z,98681.73
2018-04-24T06:18:02.343Z,98682.09
2018-04-24T06:20:29.932Z,98682.61
2018-04-24T06:22:57.511Z,98687.28
2018-04-24T06:25:25.476Z,98682.15
2018-04-24T06:27:53.064Z,98684.27
2018-04-24T06:30:20.709Z,98689.45
2018-04-24T06:32:48.470Z,98689.65
2018-04-24T06:35:16.073Z,98688.81
2018-04-24T06:37:43.716Z,98687.80
2018-04-24T06:40:11.447Z,98689.28
2018-04-24T06:42:39.044Z,98687.23
2018-04-24T06:45:06.688Z,98688.34
2018-04-24T06:47:34.482Z,98687.60
2018-04-24T06:50:02.082Z,98689.37
2018-04-24T06:52:29.723Z,98692.38
2018-04-24T06:54:57.475Z,98686.96
2018-04-24T06:57:25.051Z,98690.34
2018-04-24T06:59:52.634Z,98691.62
2018-04-24T07:02:20.431Z,98689.87
2018-04-24T07:04:48.076Z,98691.88
2018-04-24T07:07:15.721Z,98693.24
2018-04-24T07:09:43.466Z,98698.56
2018-04-24T07:12:11.061Z,98696.35
2018-04-24T07:14:38.656Z,98696.13
2018-04-24T07:17:06.415Z,98693.59
2018-04-24T07:19:34.110Z,98702.47
2018-04-24T07:22:01.753Z,98706.06
2018-04-24T07:24:29.508Z,98710.20
2018-04-24T07:26:57.170Z,98705.90
2018-04-24T07:29:24.756Z,98694.47
2018-04-24T07:31:52.482Z,98701.97
2018-04-24T07:34:20.158Z,98695.14
2018-04-24T07:36:47.809Z,98697.51
2018-04-24T07:39:15.596Z,98692.70
2018-04-24T07:41:43.177Z,98700.36
2018-04-24T07:44:10.756Z,98688.92
2018-04-24T07:46:38.628Z,98691.30
2018-04-24T07:49:06.225Z,98685.66
2018-04-24T07:51:33.954Z,98684.27
2018-04-24T07:54:01.611Z,98687.05
2018-04-24T07:56:29.204Z,98684.88
2018-04-24T07:58:56.786Z,98687.09
2018-04-24T08:01:24.421Z,98687.48
2018-04-24T08:03:52.075Z,98680.16
2018-04-24T08:06:19.649Z,98679.59
2018-04-24T08:08:47.397Z,98677.53
2018-04-24T08:11:14.997Z,98679.45
2018-04-24T08:13:42.591Z,98683.48
2018-04-24T08:16:10.408Z,98686.22
2018-04-24T08:18:37.988Z,98678.15
2018-04-24T08:21:05.631Z,98682.78
2018-04-24T08:23:34.039Z,98681.22
2018-04-24T08:26:01.675Z,98676.57
2018-04-24T08:28:29.286Z,98677.19
2018-04-24T08:30:56.948Z,98680.24
2018-04-24T08:33:24.552Z,98673.08
2018-04-24T08:35:52.156Z,98679.71
2018-04-24T08:38:19.841Z,98676.53
2018-04-24T08:40:47.435Z,98665.56
2018-04-24T08:43:15.093Z,98666.81
2018-04-24T08:45:42.787Z,98663.55
2018-04-24T08:48:10.512Z,98667.42
2018-04-24T08:50:38.158Z,98661.48
2018-04-24T08:53:05.941Z,98670.08
2018-04-24T08:55:33.576Z,98658.80
2018-04-24T08:58:01.205Z,98659.05
2018-04-24T09:00:28.920Z,98655.36
2018-04-24T09:02:56.508Z,98658.26
2018-04-24T09:05:24.122Z,98649.77
2018-04-24T09:07:51.777Z,98651.53
2018-04-24T09:10:19.373Z,98650.09
2018-04-24T09:12:46.947Z,98646.69
2018-04-24T09:15:14.648Z,98643.36
2018-04-24T09:17:42.220Z,98639.65
2018-04-24T09:20:09.863Z,98644.09
2018-04-24T09:22:37.651Z,98631.59
2018-04-24T09:25:05.295Z,98636.72
2018-04-24T09:27:32.893Z,98633.02
2018-04-24T09:30:02.517Z,98631.56
2018-04-24T09:32:30.156Z,98626.81
2018-04-24T09:34:57.738Z,98621.70
2018-04-24T09:37:25.450Z,98613.14
2018-04-24T09:39:53.090Z,98622.05
2018-04-24T09:42:20.669Z,98613.70
2018-04-24T09:44:48.294Z,98617.61
2018-04-24T09:47:15.880Z,98614.41
2018-04-24T09:49:43.692Z,98618.23
2018-04-24T09:52:11.323Z,98610.06
2018-04-24T09:54:38.904Z,98604.98
2018-04-24T09:57:06.480Z,98600.39
2018-04-24T09:59:34.223Z,98607.28
2018-04-24T10:02:01.793Z,98601.92
2018-04-24T10:04:29.430Z,98593.27
2018-04-24T10:06:57.211Z,98598.35
2018-04-24T10:09:24.804Z,98588.41
2018-04-24T10:11:52.444Z,98590.06
2018-04-24T10:14:20.136Z,98581.00
2018-04-24T10:16:47.739Z,98580.39
2018-04-24T10:19:15.388Z,98585.82
2018-04-24T10:21:43.013Z,98577.53
2018-04-24T10:24:10.660Z,98573.92
2018-04-24T10:26:38.232Z,98574.61
2018-04-24T10:29:05.994Z,98569.27
2018-04-24T10:31:33.572Z,98572.10
2018-04-24T10:34:01.148Z,98567.79
2018-04-24T10:36:28.888Z,98558.38
2018-04-24T10:38:56.469Z,98556.92
2018-04-24T10:41:24.076Z,98547.23
2018-04-24T10:43:51.735Z,98559.52
2018-04-24T10:46:19.314Z,98551.14
2018-04-24T10:48:46.965Z,98552.41
2018-04-24T10:51:14.727Z,98553.20
2018-04-24T10:53:42.361Z,98547.66
2018-04-24T10:56:09.966Z,98550.11
2018-04-24T10:58:37.679Z,98542.78
2018-04-24T11:01:05.283Z,98535.45
2018-04-24T11:03:32.921Z,98536.43
2018-04-24T11:06:00.565Z,98537.73
2018-04-24T11:08:28.230Z,98530.53
2018-04-24T11:10:55.815Z,98524.55
2018-04-24T11:13:34.132Z,98524.48
2018-04-24T11:19:13.373Z,98517.85
2018-04-24T11:21:40.968Z,98510.50
2018-04-24T11:24:08.596Z,98518.77
2018-04-24T11:26:36.224Z,98522.14
2018-04-24T11:29:03.816Z,98510.30
2018-04-24T11:31:31.464Z,98509.70
2018-04-24T11:33:59.088Z,98516.64
2018-04-24T11:36:26.674Z,98516.86
2018-04-24T11:38:54.273Z,98509.94
2018-04-24T11:41:22.022Z,98512.38
2018-04-24T11:43:50.369Z,98504.34
2018-04-24T11:46:18.015Z,98504.47
2018-04-24T11:48:45.659Z,98499.31
2018-04-24T11:51:13.258Z,98496.53
2018-04-24T11:53:41.074Z,98493.30
2018-04-24T11:56:08.699Z,98485.66
2018-04-24T11:58:36.359Z,98487.38
2018-04-24T12:01:03.976Z,98489.65
2018-04-24T12:03:32.397Z,98492.52
2018-04-24T12:05:59.980Z,98483.10
2018-04-24T12:08:27.644Z,98475.41
2018-04-24T12:10:55.266Z,98481.86
2018-04-24T12:13:22.901Z,98474.99
2018-04-24T12:15:50.480Z,98467.92
2018-04-24T12:18:18.165Z,98461.47
2018-04-24T12:20:45.806Z,98464.89
2018-04-24T12:23:13.692Z,98462.80
2018-04-24T12:25:41.400Z,98456.61
2018-04-24T12:28:08.992Z,98457.31
2018-04-24T12:30:36.720Z,98449.93
2018-04-24T12:33:04.401Z,98437.28
2018-04-24T12:35:31.973Z,98436.67
2018-04-24T12:38:00.332Z,98431.31
2018-04-24T12:40:27.964Z,98431.67
2018-04-24T12:42:55.623Z,98434.76
2018-04-24T12:45:23.218Z,98433.30
2018-04-24T12:47:52.494Z,98434.05
2018-04-24T12:50:20.074Z,98421.19
2018-04-24T12:52:47.652Z,98419.05
2018-04-24T12:55:15.472Z,98423.48
2018-04-24T12:57:43.048Z,98413.33
2018-04-24T13:00:11.108Z,98414.40
2018-04-24T13:02:38.823Z,98409.48
2018-04-24T13:05:06.409Z,98408.83
2018-04-24T13:07:34.056Z,98404.16
2018-04-24T13:10:01.678Z,98405.23
2018-04-24T13:12:29.325Z,98397.45
2018-04-24T13:14:56.911Z,98407.80
2018-04-24T13:17:24.547Z,98401.83
2018-04-24T13:19:52.115Z,98397.09
2018-04-24T13:22:19.692Z,98388.86
2018-04-24T13:24:47.320Z,98387.93
2018-04-24T13:27:15.493Z,98382.91
2018-04-24T13:29:43.173Z,98380.96
2018-04-24T13:32:10.900Z,98384.38
2018-04-24T13:34:38.532Z,98379.78
2018-04-24T13:37:06.130Z,98381.95
2018-04-24T13:39:33.767Z,98383.21
2018-04-24T13:42:01.644Z,98374.30
2018-04-24T13:44:29.244Z,98377.08
2018-04-24T13:46:56.931Z,98373.16
2018-04-24T13:49:24.503Z,98369.80
2018-04-24T13:51:52.142Z,98372.38
2018-04-24T13:54:19.768Z,98364.47
2018-04-24T13:56:47.662Z,98372.45
2018-04-24T13:59:15.245Z,98367.09
2018-04-24T14:01:42.867Z,98355.64
2018-04-24T14:04:14.337Z,98369.75
2018-04-24T14:06:41.921Z,98368.78
2018-04-24T14:09:09.680Z,98367.66
2018-04-24T14:11:37.259Z,98365.94
2018-04-24T14:14:04.890Z,98369.66
2018-04-24T14:16:32.553Z,98367.52
2018-04-24T14:19:00.145Z,98365.30
2018-04-24T14:21:27.807Z,98359.68
2018-04-24T14:23:55.394Z,98364.61
2018-04-24T14:26:23.032Z,98370.70
2018-04-24T14:28:50.603Z,98364.33
2018-04-24T14:31:18.246Z,98364.07
2018-04-24T14:33:45.894Z,98362.56
2018-04-24T14:36:13.470Z,98370.78
2018-04-24T14:38:41.184Z,98369.83
2018-04-24T14:41:08.816Z,98368.73
2018-04-24T14:43:36.404Z,98371.38
2018-04-24T14:46:04.047Z,98367.82
2018-04-24T14:48:31.622Z,98369.08
2018-04-24T14:50:59.401Z,98370.86
2018-04-24T14:53:27.065Z,98371.43
2018-04-24T14:55:54.644Z,98368.30
2018-04-24T14:58:23.371Z,98365.55
2018-04-24T15:00:51.058Z,98371.89
2018-04-24T15:03:18.704Z,98370.97
2018-04-24T15:05:46.269Z,98373.65
2018-04-24T15:08:13.987Z,98369.36
2018-04-24T15:10:41.568Z,98369.13
2018-04-24T15:13:09.144Z,98369.16
2018-04-24T15:15:36.863Z,98368.34
2018-04-24T15:18:04.467Z,98361.16
2018-04-24T15:20:32.681Z,98359.59
2018-04-24T15:23:01.070Z,98359.59
2018-04-24T15:25:28.663Z,98356.41
2018-04-24T15:27:56.301Z,98353.07
2018-04-24T15:30:24.001Z,98353.45
2018-04-24T15:32:51.588Z,98353.73
2018-04-24T15:35:19.173Z,98355.44
2018-04-24T15:37:46.804Z,98355.21
2018-04-24T15:40:14.402Z,98348.53
2018-04-24T15:42:42.048Z,98355.27
2018-04-24T15:45:09.680Z,98357.25
2018-04-24T15:47:37.329Z,98350.50
2018-04-24T15:50:04.943Z,98350.77
2018-04-24T15:52:32.740Z,98349.36
2018-04-24T15:55:00.347Z,98351.92
2018-04-24T15:57:27.937Z,98349.14
2018-04-24T15:59:55.707Z,98346.44
2018-04-24T16:02:23.268Z,98343.39
2018-04-24T16:04:50.840Z,98340.61
2018-04-24T16:07:18.568Z,98342.25
2018-04-24T16:09:46.143Z,98342.77
2018-04-24T16:12:13.811Z,98344.76
2018-04-24T16:14:41.452Z,98354.30
2018-04-24T16:17:09.024Z,98348.36
2018-04-24T16:19:36.689Z,98352.51
2018-04-24T16:22:04.316Z,98353.77
2018-04-24T16:24:31.887Z,98352.01
2018-04-24T16:26:59.484Z,98355.02
2018-04-24T16:29:27.112Z,98360.58
2018-04-24T16:31:54.722Z,98361.66
2018-04-24T16:34:22.331Z,98367.63
2018-04-24T16:36:50.044Z,98364.94
2018-04-24T16:39:17.964Z,98370.91
2018-04-24T16:41:45.283Z,98383.86
2018-04-24T16:44:12.984Z,98384.27
2018-04-24T16:46:40.557Z,98387.57
2018-04-24T16:49:08.148Z,98385.23
2018-04-24T16:51:35.842Z,98392.55
2018-04-24T16:54:03.477Z,98388.13
2018-04-24T16:56:31.804Z,98378.34
2018-04-24T16:58:59.485Z,98365.36
2018-04-24T17:01:27.492Z,98358.59
2018-04-24T17:03:55.069Z,98361.91
2018-04-24T17:06:23.705Z,98361.92
2018-04-24T17:08:51.285Z,98371.59
2018-04-24T17:11:18.892Z,98373.64
2018-04-24T17:13:46.588Z,98369.37
2018-04-24T17:16:14.156Z,98368.53
2018-04-24T17:18:41.735Z,98380.78
2018-04-24T17:21:09.368Z,98380.09
2018-04-24T17:23:36.939Z,98376.35
2018-04-24T17:26:04.640Z,98382.69
2018-04-24T17:28:32.265Z,98377.13
2018-04-24T17:30:59.877Z,98376.71
2018-04-24T17:33:27.572Z,98380.85
2018-04-24T17:35:55.336Z,98382.05
2018-04-24T17:38:22.904Z,98384.94
2018-04-24T17:40:50.596Z,98376.77
2018-04-24T17:43:18.272Z,98379.08
2018-04-24T17:45:45.839Z,98376.72
2018-04-24T17:48:13.467Z,98381.91
2018-04-24T17:50:41.173Z,98388.53
2018-04-24T17:53:08.764Z,98384.23
2018-04-24T17:55:36.408Z,98378.63
2018-04-24T17:58:05.048Z,98375.73
2018-04-24T18:00:32.753Z,98381.97
2018-04-24T18:03:00.473Z,98386.97
2018-04-24T18:05:28.159Z,98386.27
2018-04-24T18:07:55.793Z,98388.61
2018-04-24T18:10:23.457Z,98392.30
2018-04-24T18:12:51.161Z,98395.67
2018-04-24T18:15:18.724Z,98394.78
2018-04-24T18:17:46.887Z,98402.53
2018-04-24T18:20:14.564Z,98394.43
2018-04-24T18:22:42.192Z,98397.70
2018-04-24T18:25:09.773Z,98409.14
2018-04-24T18:27:37.491Z,98408.73
2018-04-24T18:30:05.140Z,98408.16
2018-04-24T18:32:34.811Z,98408.94
2018-04-24T18:35:02.512Z,98407.07
2018-04-24T18:37:30.096Z,98414.81
2018-04-24T18:39:57.744Z,98408.16
2018-04-24T18:42:25.363Z,98413.98
2018-04-24T18:44:52.940Z,98420.83
2018-04-24T18:47:20.544Z,98421.06
2018-04-24T18:49:48.232Z,98426.44
2018-04-24T18:52:15.833Z,98427.16
2018-04-24T18:54:43.428Z,98435.61
2018-04-24T18:57:11.107Z,98442.09
2018-04-24T18:59:39.319Z,98440.63
2018-04-24T19:02:06.895Z,98444.27
2018-04-24T19:04:34.686Z,98441.78
2018-04-24T19:07:02.267Z,98442.14
2018-04-24T19:09:29.832Z,98445.72
2018-04-24T19:11:57.626Z,98442.83
2018-04-24T19:14:25.233Z,98457.59
2018-04-24T19:16:52.862Z,98459.94
2018-04-24T19:19:26.259Z,98460.72
2018-04-24T19:21:53.840Z,98469.38
2018-04-24T19:24:27.072Z,98470.88
2018-04-24T19:26:55.141Z,98481.69
2018-04-24T19:29:22.866Z,98484.89
2018-04-24T19:31:56.102Z,98495.78
2018-04-24T19:34:23.813Z,98494.81
2018-04-24T19:36:51.528Z,98522.59
2018-04-24T19:39:24.841Z,98521.22
2018-04-24T19:41:52.431Z,98515.92
2018-04-24T19:44:20.017Z,98537.73
2018-04-24T19:46:47.656Z,98538.38
2018-04-24T19:49:20.825Z,98540.31
2018-04-24T19:51:48.433Z,98535.28
2018-04-24T19:54:16.009Z,98556.20
2018-04-24T19:56:43.647Z,98551.30
2018-04-24T19:59:11.275Z,98585.15
2018-04-24T20:01:38.861Z,98586.97
2018-04-24T20:04:06.431Z,98591.30
2018-04-24T20:06:34.257Z,98597.41
2018-04-24T20:09:01.917Z,98598.30
2018-04-24T20:11:29.579Z,98591.84
2018-04-24T20:13:57.204Z,98595.41
2018-04-24T20:16:24.784Z,98592.77
2018-04-24T20:18:52.355Z,98592.45
2018-04-24T20:21:20.064Z,98604.47
2018-04-24T20:23:47.679Z,98606.08
2018-04-24T20:26:15.349Z,98598.66
2018-04-24T20:28:43.044Z,98609.49
2018-04-24T20:31:10.705Z,98597.01
2018-04-24T20:33:38.376Z,98617.67
2018-04-24T20:36:06.052Z,98628.75
2018-04-24T20:38:33.709Z,98621.59
2018-04-24T20:41:01.243Z,98612.41
2018-04-24T20:43:28.903Z,98619.13
2018-04-24T20:45:56.510Z,98609.78
2018-04-24T20:48:24.120Z,98613.02
2018-04-24T20:50:51.754Z,98602.53
2018-04-24T20:53:19.445Z,98644.02
2018-04-24T20:55:47.036Z,98633.98
2018-04-24T20:58:14.664Z,98628.16
2018-04-24T21:00:42.280Z,98647.34
2018-04-24T21:03:09.893Z,98655.39
2018-04-24T21:05:37.689Z,98655.05
2018-04-24T21:08:05.544Z,98643.34
2018-04-24T21:10:33.111Z,98653.26
2018-04-24T21:13:00.827Z,98653.95
2018-04-24T21:15:28.448Z,98645.03
2018-04-24T21:17:56.068Z,98628.37
2018-04-24T21:20:23.764Z,98641.67
2018-04-24T21:22:51.840Z,98649.94
2018-04-24T21:25:19.404Z,98643.62
2018-04-24T21:27:47.096Z,98642.33
2018-04-24T21:30:14.663Z,98653.38
2018-04-24T21:32:42.256Z,98637.17
2018-04-24T21:35:09.936Z,98650.55
2018-04-24T21:37:37.526Z,98653.02
2018-04-24T21:40:05.124Z,98654.28
2018-04-24T21:42:32.835Z,98658.87
2018-04-24T21:45:00.391Z,98672.66
2018-04-24T21:47:28.016Z,98685.25
2018-04-24T21:49:55.808Z,98697.96
2018-04-24T21:52:23.512Z,98695.09
2018-04-24T21:54:51.241Z,98698.37
2018-04-24T21:57:18.932Z,98711.14
2018-04-24T21:59:46.596Z,98718.09
2018-04-24T22:02:14.168Z,98736.75
2018-04-24T22:04:41.785Z,98753.91
2018-04-24T22:07:09.363Z,98751.62
2018-04-24T22:09:37.020Z,98746.14
2018-04-24T22:12:04.720Z,98756.47
2018-04-24T22:14:32.428Z,98758.96
2018-04-24T22:17:00.052Z,98757.63
2018-04-24T22:19:27.689Z,98745.89
2018-04-24T22:21:55.250Z,98736.66
2018-04-24T22:24:22.876Z,98738.03
2018-04-24T22:26:50.550Z,98736.52
2018-04-24T22:29:18.168Z,98740.48
2018-04-24T22:31:45.748Z,98729.09
2018-04-24T22:34:13.365Z,98737.14
2018-04-24T22:36:40.959Z,98739.30
2018-04-24T22:39:08.524Z,98738.62
2018-04-24T22:41:36.231Z,98729.16
2018-04-24T22:44:03.844Z,98721.20
2018-04-24T22:46:31.494Z,98714.16
2018-04-24T22:48:59.112Z,98728.67
2018-04-24T22:51:26.752Z,98720.34
2018-04-24T22:53:54.328Z,98727.23
2018-04-24T22:56:21.989Z,98729.70
2018-04-24T22:58:49.613Z,98729.91
2018-04-24T23:01:17.172Z,98730.93
2018-04-24T23:03:44.786Z,98728.16
2018-04-24T23:06:12.369Z,98720.66
2018-04-24T23:08:39.928Z,98719.92
2018-04-24T23:11:20.388Z,98712.31
2018-04-24T23:13:59.889Z,98707.55
2018-04-24T23:16:39.309Z,98705.92
2018-04-24T23:19:18.787Z,98696.26
2018-04-24T23:21:45.864Z,98700.03
2018-04-24T23:24:13.433Z,98686.97
2018-04-24T23:26:40.999Z,98689.03
2018-04-24T23:29:08.710Z,98686.09
2018-04-24T23:31:36.259Z,98696.41
2018-04-24T23:34:03.840Z,98689.71
2018-04-24T23:36:31.479Z,98691.39
2018-04-24T23:38:59.122Z,98693.78
2018-04-24T23:41:26.688Z,98700.67
2018-04-24T23:43:54.477Z,98701.20
2018-04-24T23:46:22.125Z,98700.49
2018-04-24T23:48:49.693Z,98708.11
2018-04-24T23:51:17.480Z,98698.64
2018-04-24T23:53:45.039Z,98700.02
2018-04-24T23:56:12.628Z,98700.42
2018-04-24T23:58:40.251Z,98697.54
